createdAt,value
2019-02-06T00:00:00.221Z,33.67
2019-02-06T00:02:29.021Z,43.57
2019-02-06T00:04:57.494Z,32.03
2019-02-06T00:07:26.331Z,35.17
2019-02-06T00:09:56.617Z,30.17
2019-02-06T00:12:24.998Z,31.57
2019-02-06T00:14:53.704Z,37.20
2019-02-06T00:17:22.058Z,40.00
2019-02-06T00:19:50.632Z,31.43
2019-02-06T00:22:19.345Z,37.03
2019-02-06T00:24:48.005Z,40.37
2019-02-06T00:27:16.693Z,35.20
2019-02-06T00:29:45.497Z,34.97
2019-02-06T00:32:14.716Z,37.03
2019-02-06T00:34:42.955Z,39.30
2019-02-06T00:37:11.462Z,37.70
2019-02-06T00:39:40.125Z,37.30
2019-02-06T00:42:08.803Z,37.00
2019-02-06T00:44:40.907Z,41.43
2019-02-06T00:47:09.964Z,36.43
2019-02-06T00:49:38.549Z,34.40
2019-02-06T00:52:07.258Z,36.43
2019-02-06T00:54:35.925Z,34.60
2019-02-06T00:57:04.398Z,35.27
2019-02-06T00:59:33.513Z,39.83
2019-02-06T01:02:01.872Z,31.43
2019-02-06T01:04:30.470Z,35.53
2019-02-06T01:06:59.162Z,34.10
2019-02-06T01:09:27.816Z,35.40
2019-02-06T01:11:56.716Z,36.67
2019-02-06T01:14:26.357Z,34.50
2019-02-06T01:16:54.908Z,36.10
2019-02-06T01:19:23.587Z,33.63
2019-02-06T01:21:52.257Z,30.77
2019-02-06T01:24:20.972Z,31.63
2019-02-06T01:26:49.457Z,33.50
2019-02-06T01:29:17.744Z,34.87
2019-02-06T01:31:46.309Z,32.80
2019-02-06T01:34:14.890Z,30.73
2019-02-06T01:36:50.088Z,31.93
2019-02-06T01:39:18.707Z,34.30
2019-02-06T01:41:47.298Z,30.90
2019-02-06T01:44:16.189Z,32.13
2019-02-06T01:46:45.998Z,34.90
2019-02-06T01:49:14.366Z,29.87
2019-02-06T01:51:43.075Z,29.90
2019-02-06T01:54:11.322Z,42.20
2019-02-06T01:56:40.022Z,27.57
2019-02-06T01:59:08.737Z,39.83
2019-02-06T02:01:37.290Z,34.03
2019-02-06T02:04:05.770Z,35.07
2019-02-06T02:06:34.396Z,33.60
2019-02-06T02:09:06.501Z,34.43
2019-02-06T02:11:35.555Z,32.73
2019-02-06T02:14:04.474Z,32.70
2019-02-06T02:16:33.203Z,27.97
2019-02-06T02:19:02.704Z,30.10
2019-02-06T02:21:32.750Z,33.73
2019-02-06T02:24:01.302Z,29.13
2019-02-06T02:26:29.992Z,31.10
2019-02-06T02:28:58.663Z,29.40
2019-02-06T02:31:27.044Z,34.90
2019-02-06T02:33:56.049Z,37.07
2019-02-06T02:36:24.721Z,35.87
2019-02-06T02:38:53.421Z,33.67
2019-02-06T02:41:22.113Z,32.77
2019-02-06T02:43:51.385Z,26.03
2019-02-06T02:46:20.082Z,33.77
2019-02-06T02:48:48.796Z,26.57
2019-02-06T02:51:17.026Z,29.73
2019-02-06T02:53:45.726Z,36.10
2019-02-06T02:56:14.445Z,31.07
2019-02-06T02:58:43.097Z,26.23
2019-02-06T03:01:32.475Z,31.17
2019-02-06T03:04:15.092Z,33.33
2019-02-06T03:06:43.793Z,27.27
2019-02-06T03:09:12.863Z,29.97
2019-02-06T03:11:41.556Z,34.50
2019-02-06T03:14:16.207Z,29.53
2019-02-06T03:16:44.855Z,28.20
2019-02-06T03:19:13.345Z,29.60
2019-02-06T03:21:42.047Z,30.57
2019-02-06T03:24:10.405Z,32.60
2019-02-06T03:26:38.991Z,27.40
2019-02-06T03:29:08.922Z,30.93
2019-02-06T03:31:37.315Z,32.60
2019-02-06T03:34:05.982Z,32.00
2019-02-06T03:36:40.665Z,31.53
2019-02-06T03:39:07.757Z,27.13
2019-02-06T03:41:36.450Z,32.97
2019-02-06T03:44:05.502Z,28.23
2019-02-06T03:46:33.906Z,27.17
2019-02-06T03:49:02.291Z,25.80
2019-02-06T03:51:30.958Z,30.60
2019-02-06T03:53:59.453Z,29.50
2019-02-06T03:56:27.847Z,29.90
2019-02-06T03:58:56.401Z,30.83
2019-02-06T04:01:24.890Z,26.80
2019-02-06T04:03:53.380Z,28.57
2019-02-06T04:06:21.750Z,28.80
2019-02-06T04:08:50.294Z,31.17
2019-02-06T04:11:19.039Z,26.37
2019-02-06T04:13:47.257Z,24.67
2019-02-06T04:16:21.728Z,28.30
2019-02-06T04:18:50.402Z,28.13
2019-02-06T04:21:19.074Z,26.43
2019-02-06T04:23:47.373Z,27.80
2019-02-06T04:26:16.040Z,27.73
2019-02-06T04:28:44.728Z,25.33
2019-02-06T04:31:13.423Z,26.23
2019-02-06T04:33:42.111Z,23.13
2019-02-06T04:36:10.353Z,25.77
2019-02-06T04:38:39.079Z,25.70
2019-02-06T04:41:07.758Z,27.70
2019-02-06T04:43:36.410Z,22.43
2019-02-06T04:46:05.240Z,22.40
2019-02-06T04:48:34.835Z,24.20
2019-02-06T04:51:03.502Z,22.97
2019-02-06T04:53:32.084Z,21.20
2019-02-06T04:56:00.378Z,23.60
2019-02-06T04:58:28.942Z,24.23
2019-02-06T05:00:57.443Z,19.80
2019-02-06T05:03:26.074Z,23.37
2019-02-06T05:05:55.334Z,19.00
2019-02-06T05:08:23.927Z,21.07
2019-02-06T05:10:52.575Z,22.63
2019-02-06T05:13:20.855Z,19.70
2019-02-06T05:15:49.364Z,19.83
2019-02-06T05:18:23.775Z,18.53
2019-02-06T05:20:52.820Z,21.53
2019-02-06T05:23:23.142Z,17.97
2019-02-06T05:25:52.122Z,20.47
2019-02-06T05:28:20.762Z,21.43
2019-02-06T05:30:50.146Z,18.77
2019-02-06T05:33:18.730Z,18.63
2019-02-06T05:35:48.259Z,16.90
2019-02-06T05:38:16.505Z,17.80
2019-02-06T05:40:44.797Z,18.50
2019-02-06T05:43:13.499Z,16.87
2019-02-06T05:45:41.765Z,18.93
2019-02-06T05:48:10.224Z,18.07
2019-02-06T05:50:38.954Z,15.57
2019-02-06T05:53:07.918Z,17.00
2019-02-06T05:55:36.703Z,17.80
2019-02-06T05:58:05.389Z,18.33
2019-02-06T06:00:39.075Z,15.00
2019-02-06T06:03:07.730Z,15.70
2019-02-06T06:05:36.348Z,17.33
2019-02-06T06:08:05.050Z,17.50
2019-02-06T06:10:33.945Z,13.23
2019-02-06T06:13:03.352Z,15.40
2019-02-06T06:15:31.931Z,15.13
2019-02-06T06:18:00.614Z,15.10
2019-02-06T06:20:29.554Z,17.03
2019-02-06T06:22:58.901Z,14.57
2019-02-06T06:25:28.334Z,15.57
2019-02-06T06:27:57.702Z,16.17
2019-02-06T06:30:26.271Z,13.83
2019-02-06T06:32:56.373Z,16.13
2019-02-06T06:35:25.249Z,15.10
2019-02-06T06:37:59.683Z,13.87
2019-02-06T06:40:30.369Z,14.97
2019-02-06T06:42:58.908Z,13.57
2019-02-06T06:45:28.200Z,12.97
2019-02-06T06:47:56.615Z,16.47
2019-02-06T06:50:25.178Z,13.27
2019-02-06T06:52:53.566Z,14.97
2019-02-06T06:55:22.446Z,17.37
2019-02-06T06:57:51.004Z,14.50
2019-02-06T07:00:35.588Z,14.83
2019-02-06T07:03:13.759Z,14.03
2019-02-06T07:05:51.254Z,14.40
2019-02-06T07:09:01.935Z,15.93
2019-02-06T07:11:38.730Z,15.20
2019-02-06T07:14:19.717Z,16.17
2019-02-06T07:16:55.339Z,15.73
2019-02-06T07:19:32.934Z,15.87
2019-02-06T07:22:10.243Z,14.47
2019-02-06T07:24:46.849Z,16.17
2019-02-06T07:27:26.787Z,15.60
2019-02-06T07:30:26.630Z,15.93
2019-02-06T07:33:03.655Z,15.10
2019-02-06T07:35:49.650Z,15.90
2019-02-06T07:38:24.317Z,16.53
2019-02-06T07:41:02.923Z,15.07
2019-02-06T07:43:42.144Z,15.53
2019-02-06T07:46:17.111Z,15.73
2019-02-06T07:48:56.688Z,14.43
2019-02-06T07:51:41.737Z,14.83
2019-02-06T07:54:18.673Z,12.80
2019-02-06T07:57:00.353Z,13.10
2019-02-06T07:59:39.150Z,13.40
2019-02-06T08:02:21.699Z,13.23
2019-02-06T08:04:58.498Z,12.90
2019-02-06T08:07:36.274Z,12.07
2019-02-06T08:10:19.571Z,12.07
2019-02-06T08:12:57.400Z,13.90
2019-02-06T08:15:29.060Z,12.97
2019-02-06T08:17:57.319Z,12.00
2019-02-06T08:20:35.926Z,11.87
2019-02-06T08:23:17.504Z,13.27
2019-02-06T08:25:51.829Z,11.10
2019-02-06T08:28:29.450Z,10.77
2019-02-06T08:31:06.823Z,12.80
2019-02-06T08:33:43.739Z,11.07
2019-02-06T08:36:22.206Z,11.50
2019-02-06T08:38:59.701Z,11.60
2019-02-06T08:41:44.553Z,11.33
2019-02-06T08:44:38.662Z,11.63
2019-02-06T08:47:07.687Z,10.07
2019-02-06T08:49:36.236Z,10.30
2019-02-06T08:52:11.296Z,10.17
2019-02-06T08:54:46.413Z,11.23
2019-02-06T08:57:26.340Z,9.70
2019-02-06T09:00:09.309Z,9.63
2019-02-06T09:02:47.193Z,9.53
2019-02-06T09:05:24.795Z,10.60
2019-02-06T09:08:01.472Z,9.87
2019-02-06T09:10:51.877Z,9.60
2019-02-06T09:13:37.454Z,9.83
2019-02-06T09:16:21.543Z,9.50
2019-02-06T09:19:02.115Z,8.80
2019-02-06T09:21:53.817Z,9.57
2019-02-06T09:24:30.310Z,9.30
2019-02-06T09:26:59.828Z,8.23
2019-02-06T09:29:28.153Z,8.80
2019-02-06T09:32:10.636Z,8.77
2019-02-06T09:34:50.277Z,7.90
2019-02-06T09:38:03.410Z,8.40
2019-02-06T09:40:41.541Z,8.03
2019-02-06T09:43:18.623Z,7.33
2019-02-06T09:45:58.135Z,8.77
2019-02-06T09:49:07.076Z,9.30
2019-02-06T09:51:43.904Z,8.73
2019-02-06T09:54:19.630Z,8.13
2019-02-06T09:56:57.031Z,7.77
2019-02-06T10:00:04.229Z,8.87
2019-02-06T10:02:41.553Z,8.43
2019-02-06T10:05:20.185Z,29.00
2019-02-06T10:07:49.068Z,14.13
2019-02-06T10:11:01.479Z,9.40
2019-02-06T10:13:39.657Z,12.53
2019-02-06T10:16:34.617Z,8.80
2019-02-06T10:19:12.868Z,9.53
2019-02-06T10:21:54.279Z,9.60
2019-02-06T10:24:33.286Z,10.10
2019-02-06T10:27:11.360Z,9.93
2019-02-06T10:29:45.932Z,8.03
2019-02-06T10:32:23.950Z,10.67
2019-02-06T10:35:03.100Z,10.10
2019-02-06T10:38:07.936Z,8.90
2019-02-06T10:40:49.447Z,11.10
2019-02-06T10:43:32.045Z,9.93
2019-02-06T10:46:12.794Z,10.27
2019-02-06T10:48:43.921Z,7.20
2019-02-06T10:51:23.490Z,6.67
2019-02-06T10:54:16.904Z,6.93
2019-02-06T10:56:57.444Z,6.80
2019-02-06T10:59:47.292Z,7.73
2019-02-06T11:02:27.376Z,6.57
2019-02-06T11:05:19.643Z,6.20
2019-02-06T11:08:10.933Z,6.60
2019-02-06T11:10:53.810Z,6.27
2019-02-06T11:13:31.772Z,7.10
2019-02-06T11:16:10.976Z,6.13
2019-02-06T11:18:49.844Z,5.30
2019-02-06T11:21:29.637Z,6.57
2019-02-06T11:24:07.682Z,5.77
2019-02-06T11:26:54.902Z,5.53
2019-02-06T11:29:23.051Z,5.80
2019-02-06T11:32:04.167Z,6.40
2019-02-06T11:34:39.233Z,6.13
2019-02-06T11:37:21.457Z,5.70
2019-02-06T11:39:59.392Z,5.53
2019-02-06T11:42:33.236Z,6.37
2019-02-06T11:45:15.455Z,8.33
2019-02-06T11:48:27.740Z,5.43
2019-02-06T11:51:03.754Z,5.70
2019-02-06T11:53:48.475Z,5.03
2019-02-06T11:56:21.845Z,5.20
2019-02-06T11:59:04.959Z,4.53
2019-02-06T12:01:45.015Z,5.70
2019-02-06T12:04:22.196Z,4.70
2019-02-06T12:07:00.868Z,4.90
2019-02-06T12:09:31.937Z,4.00
2019-02-06T12:12:11.282Z,3.40
2019-02-06T12:14:43.685Z,7.97
2019-02-06T12:17:21.113Z,6.20
2019-02-06T12:20:15.325Z,7.73
2019-02-06T12:22:55.767Z,5.10
2019-02-06T12:25:37.602Z,5.20
2019-02-06T12:28:13.594Z,9.80
2019-02-06T12:31:25.757Z,6.27
2019-02-06T12:34:05.304Z,5.47
2019-02-06T12:36:45.246Z,4.80
2019-02-06T12:39:23.175Z,16.00
2019-02-06T12:41:59.512Z,9.50
2019-02-06T12:44:36.144Z,5.30
2019-02-06T12:47:13.997Z,5.00
2019-02-06T12:49:47.387Z,5.03
2019-02-06T12:52:29.029Z,4.80
2019-02-06T12:55:11.733Z,3.20
2019-02-06T12:57:58.939Z,4.67
2019-02-06T13:00:36.682Z,5.67
2019-02-06T13:03:19.377Z,8.47
2019-02-06T13:05:59.027Z,7.33
2019-02-06T13:08:39.906Z,5.33
2019-02-06T13:11:20.123Z,6.03
2019-02-06T13:14:19.058Z,5.83
2019-02-06T13:16:56.627Z,3.83
2019-02-06T13:19:39.119Z,4.13
2019-02-06T13:22:15.076Z,5.60
2019-02-06T13:25:02.658Z,6.47
2019-02-06T13:27:38.924Z,4.37
2019-02-06T13:30:16.729Z,3.90
2019-02-06T13:32:55.153Z,4.13
2019-02-06T13:35:30.659Z,5.83
2019-02-06T13:38:14.743Z,3.60
2019-02-06T13:40:51.768Z,3.50
2019-02-06T13:43:28.747Z,3.40
2019-02-06T13:46:11.527Z,5.53
2019-02-06T13:48:48.730Z,6.60
2019-02-06T13:51:37.945Z,4.10
2019-02-06T13:54:16.883Z,3.90
2019-02-06T13:57:02.678Z,4.03
2019-02-06T13:59:38.445Z,3.97
2019-02-06T14:02:16.697Z,3.13
2019-02-06T14:04:53.701Z,4.63
2019-02-06T14:07:22.406Z,5.57
2019-02-06T14:09:50.879Z,3.47
2019-02-06T14:12:31.211Z,4.37
2019-02-06T14:15:10.226Z,4.17
2019-02-06T14:17:43.557Z,4.20
2019-02-06T14:20:21.308Z,8.50
2019-02-06T14:23:03.965Z,4.43
2019-02-06T14:25:50.135Z,9.60
2019-02-06T14:29:12.478Z,5.80
2019-02-06T14:32:26.918Z,2.47
2019-02-06T14:35:25.315Z,4.87
2019-02-06T14:38:33.884Z,3.30
2019-02-06T14:41:52.768Z,4.13
2019-02-06T14:44:46.117Z,4.20
2019-02-06T14:47:40.924Z,3.67
2019-02-06T14:51:04.950Z,3.77
2019-02-06T14:54:18.567Z,4.30
2019-02-06T14:57:28.128Z,4.23
2019-02-06T15:00:14.158Z,4.03
2019-02-06T15:03:17.579Z,3.93
2019-02-06T15:06:23.509Z,4.30
2019-02-06T15:09:45.092Z,4.50
2019-02-06T15:13:12.291Z,4.10
2019-02-06T15:16:19.708Z,4.23
2019-02-06T15:19:22.786Z,3.90
2019-02-06T15:22:36.787Z,3.43
2019-02-06T15:25:55.495Z,3.90
2019-02-06T15:29:24.168Z,3.20
2019-02-06T15:32:29.341Z,2.73
2019-02-06T15:35:54.211Z,2.60
2019-02-06T15:39:04.295Z,2.70
2019-02-06T15:41:58.018Z,2.73
2019-02-06T15:44:54.252Z,2.57
2019-02-06T15:48:02.061Z,2.80
2019-02-06T15:51:46.985Z,2.67
2019-02-06T15:55:00.615Z,2.40
2019-02-06T15:58:25.164Z,2.57
2019-02-06T16:01:54.510Z,2.30
2019-02-06T16:05:00.673Z,2.20
2019-02-06T16:08:10.584Z,2.50
2019-02-06T16:11:18.150Z,2.67
2019-02-06T16:14:33.965Z,2.70
2019-02-06T16:17:42.775Z,2.70
2019-02-06T16:20:44.604Z,2.77
2019-02-06T16:23:50.230Z,4.37
2019-02-06T16:27:01.966Z,3.57
2019-02-06T16:30:33.002Z,26.20
2019-02-06T16:33:44.356Z,5.97
2019-02-06T16:36:52.086Z,4.57
2019-02-06T16:39:48.367Z,4.20
2019-02-06T16:42:50.993Z,3.87
2019-02-06T16:46:03.398Z,6.10
2019-02-06T16:49:03.330Z,6.53
2019-02-06T16:52:16.703Z,4.73
2019-02-06T16:55:44.304Z,6.00
2019-02-06T16:58:36.050Z,5.37
2019-02-06T17:01:44.054Z,4.67
2019-02-06T17:04:41.785Z,4.90
2019-02-06T17:07:52.207Z,5.60
2019-02-06T17:11:05.497Z,5.07
2019-02-06T17:14:01.098Z,5.13
2019-02-06T17:17:07.218Z,4.97
2019-02-06T17:20:07.449Z,5.97
2019-02-06T17:23:29.041Z,5.27
2019-02-06T17:26:42.060Z,5.77
2019-02-06T17:29:39.795Z,5.60
2019-02-06T17:33:09.185Z,6.17
2019-02-06T17:35:57.545Z,6.47
2019-02-06T17:39:38.845Z,5.90
2019-02-06T17:43:19.996Z,7.20
2019-02-06T17:46:40.434Z,7.83
2019-02-06T17:49:40.948Z,6.77
2019-02-06T17:52:48.503Z,9.97
2019-02-06T17:55:29.317Z,9.77
2019-02-06T17:58:10.660Z,8.37
2019-02-06T18:01:12.826Z,9.17
2019-02-06T18:04:11.292Z,10.53
2019-02-06T18:06:44.781Z,12.83
2019-02-06T18:09:44.072Z,12.13
2019-02-06T18:12:28.659Z,9.00
2019-02-06T18:15:09.934Z,7.93
2019-02-06T18:17:47.024Z,8.13
2019-02-06T18:20:28.654Z,7.90
2019-02-06T18:23:08.010Z,11.63
2019-02-06T18:25:46.019Z,11.17
2019-02-06T18:28:28.818Z,16.10
2019-02-06T18:31:16.419Z,15.93
2019-02-06T18:33:54.168Z,15.93
2019-02-06T18:36:30.543Z,12.60
2019-02-06T18:39:13.220Z,10.23
2019-02-06T18:41:50.449Z,11.07
2019-02-06T18:44:25.262Z,11.13
2019-02-06T18:47:00.478Z,12.80
2019-02-06T18:49:40.432Z,10.27
2019-02-06T18:52:20.449Z,10.43
2019-02-06T18:54:53.781Z,11.80
2019-02-06T18:57:32.663Z,8.87
2019-02-06T19:00:02.817Z,14.00
2019-02-06T19:02:44.658Z,10.13
2019-02-06T19:05:39.791Z,9.97
2019-02-06T19:08:17.279Z,11.67
2019-02-06T19:10:53.933Z,11.77
2019-02-06T19:13:27.211Z,9.40
2019-02-06T19:16:09.237Z,8.80
2019-02-06T19:18:49.728Z,8.93
2019-02-06T19:21:32.718Z,8.50
2019-02-06T19:24:12.009Z,8.07
2019-02-06T19:26:58.290Z,9.07
2019-02-06T19:29:36.227Z,10.93
2019-02-06T19:32:31.113Z,13.93
2019-02-06T19:35:06.513Z,12.60
2019-02-06T19:37:44.364Z,9.27
2019-02-06T19:40:21.550Z,9.00
2019-02-06T19:43:00.401Z,11.00
2019-02-06T19:45:36.641Z,10.30
2019-02-06T19:48:25.961Z,11.23
2019-02-06T19:51:02.361Z,10.30
2019-02-06T19:53:37.503Z,9.57
2019-02-06T19:56:16.767Z,8.93
2019-02-06T19:59:12.566Z,10.30
2019-02-06T20:01:47.557Z,9.00
2019-02-06T20:04:25.503Z,9.80
2019-02-06T20:07:06.990Z,13.90
2019-02-06T20:09:44.528Z,12.57
2019-02-06T20:12:22.035Z,15.13
2019-02-06T20:14:56.281Z,9.93
2019-02-06T20:17:34.140Z,10.93
2019-02-06T20:20:02.704Z,10.03
2019-02-06T20:22:31.297Z,10.07
2019-02-06T20:25:00.430Z,7.80
2019-02-06T20:27:29.538Z,8.47
2019-02-06T20:29:57.817Z,9.13
2019-02-06T20:32:26.417Z,9.17
2019-02-06T20:34:54.656Z,9.20
2019-02-06T20:37:23.066Z,9.43
2019-02-06T20:39:51.665Z,8.90
2019-02-06T20:42:20.570Z,9.10
2019-02-06T20:44:49.201Z,9.20
2019-02-06T20:47:17.910Z,9.00
2019-02-06T20:49:47.257Z,9.57
2019-02-06T20:52:15.690Z,10.00
2019-02-06T20:54:44.089Z,9.67
2019-02-06T20:57:15.659Z,10.03
2019-02-06T20:59:42.954Z,10.30
2019-02-06T21:02:11.667Z,9.23
2019-02-06T21:04:47.110Z,9.90
2019-02-06T21:07:16.015Z,10.63
2019-02-06T21:09:45.278Z,9.57
2019-02-06T21:12:15.021Z,9.70
2019-02-06T21:14:43.852Z,10.07
2019-02-06T21:17:12.775Z,10.20
2019-02-06T21:19:41.442Z,9.87
2019-02-06T21:22:10.507Z,9.47
2019-02-06T21:24:39.055Z,8.90
2019-02-06T21:27:07.964Z,8.73
2019-02-06T21:29:36.331Z,8.90
2019-02-06T21:32:04.881Z,8.10
2019-02-06T21:34:34.197Z,8.37
2019-02-06T21:37:02.898Z,7.93
2019-02-06T21:39:32.136Z,7.00
2019-02-06T21:42:00.856Z,7.00
2019-02-06T21:44:29.561Z,6.93
2019-02-06T21:46:58.626Z,6.80
2019-02-06T21:49:27.947Z,6.90
2019-02-06T21:51:56.663Z,7.40
2019-02-06T21:54:25.512Z,6.87
2019-02-06T21:56:54.629Z,7.10
2019-02-06T21:59:23.037Z,6.40
2019-02-06T22:01:51.481Z,6.40
2019-02-06T22:04:19.854Z,6.27
2019-02-06T22:06:50.025Z,6.37
2019-02-06T22:09:19.500Z,5.60
2019-02-06T22:11:48.550Z,5.70
2019-02-06T22:14:17.024Z,5.97
2019-02-06T22:16:45.724Z,5.43
2019-02-06T22:19:14.508Z,5.23
2019-02-06T22:21:42.825Z,4.50
2019-02-06T22:24:11.368Z,5.00
2019-02-06T22:26:40.705Z,4.27
2019-02-06T22:29:24.723Z,4.77
2019-02-06T22:32:00.930Z,4.63
2019-02-06T22:34:29.518Z,4.83
2019-02-06T22:36:58.454Z,4.77
2019-02-06T22:39:27.665Z,4.30
2019-02-06T22:41:56.345Z,4.80
2019-02-06T22:44:24.635Z,4.20
2019-02-06T22:46:53.697Z,4.57
2019-02-06T22:49:22.698Z,4.60
2019-02-06T22:51:52.057Z,4.10
2019-02-06T22:54:20.721Z,4.03
2019-02-06T22:56:49.511Z,4.33
2019-02-06T22:59:18.156Z,4.37
2019-02-06T23:01:55.485Z,3.90
2019-02-06T23:04:24.408Z,4.30
2019-02-06T23:06:52.894Z,4.00
2019-02-06T23:09:21.742Z,3.87
2019-02-06T23:11:50.666Z,3.63
2019-02-06T23:14:19.298Z,3.10
2019-02-06T23:16:48.981Z,3.20
2019-02-06T23:19:17.671Z,2.90
2019-02-06T23:21:46.359Z,3.23
2019-02-06T23:24:14.856Z,3.10
2019-02-06T23:26:43.534Z,2.90
2019-02-06T23:29:11.792Z,2.40
2019-02-06T23:31:40.512Z,2.30
2019-02-06T23:34:09.196Z,2.43
2019-02-06T23:36:37.860Z,2.07
2019-02-06T23:39:14.546Z,2.20
2019-02-06T23:41:43.433Z,2.10
2019-02-06T23:44:12.323Z,1.90
2019-02-06T23:46:41.126Z,1.80
2019-02-06T23:49:09.901Z,1.70
2019-02-06T23:51:38.594Z,1.70
2019-02-06T23:54:07.282Z,1.80
2019-02-06T23:56:35.548Z,1.60
2019-02-06T23:59:04.442Z,1.90
